Time;durP1;ratioP1;P1;durP2;ratioP2;P2;SDS_P1;SDS_P2;PMS_P1;PMS_P2;Temp;Humidity;BMP_temperature;BMP_pressure;BME280_temperature;BME280_humidity;BME280_pressure;Samples;Min_cycle;Max_cycle;Signal;HPM_P1;HPM_P2
2021/12/22 00:00:09;;;;;;;13.30;8.70;;;;;;;-4.08;100.00;101867.44;845720;23;796;-55
2021/12/22 00:00:29;;;;;;;13.77;8.93;;;;;;;-4.12;100.00;101858.69;844536;23;701;-54
2021/12/22 00:00:49;;;;;;;14.00;9.13;;;;;;;-4.18;100.00;101861.69;845212;23;643;-50
2021/12/22 00:01:10;;;;;;;13.02;8.80;;;;;;;-4.14;100.00;101863.69;846478;23;4630;-52
2021/12/22 00:01:30;;;;;;;14.20;8.90;;;;;;;-4.15;100.00;101866.13;848504;23;914;-52
2021/12/22 00:01:52;;;;;;;14.10;9.20;;;;;;;-4.24;100.00;101861.19;848933;23;1909;-52
2021/12/22 00:02:12;;;;;;;11.85;8.80;;;;;;;-4.24;100.00;101858.66;849336;23;946;-51
2021/12/22 00:02:34;;;;;;;13.07;8.83;;;;;;;-4.06;100.00;101866.78;849036;23;835;-53
2021/12/22 00:02:55;;;;;;;13.43;8.90;;;;;;;-4.09;100.00;101863.13;847831;23;831;-52
2021/12/22 00:03:15;;;;;;;12.67;8.80;;;;;;;-4.12;100.00;101861.25;844914;23;945;-53
2021/12/22 00:03:36;;;;;;;12.43;8.43;;;;;;;-4.15;100.00;101859.34;842175;23;788;-53
2021/12/22 00:03:56;;;;;;;12.77;8.32;;;;;;;-4.09;100.00;101860.56;845494;23;880;-52
2021/12/22 00:04:17;;;;;;;13.10;8.87;;;;;;;-4.11;100.00;101865.56;842883;23;4267;-54
2021/12/22 00:04:44;;;;;;;13.80;9.05;;;;;;;-4.16;100.00;101866.91;845009;23;594;-54
2021/12/22 00:05:04;;;;;;;13.68;8.68;;;;;;;-4.17;100.00;101858.31;845929;23;779;-55
2021/12/22 00:05:29;;;;;;;13.95;8.63;;;;;;;-4.07;100.00;101859.00;844459;23;914;-54
2021/12/22 00:05:51;;;;;;;14.13;8.93;;;;;;;-4.07;100.00;101859.00;845839;23;930;-53
2021/12/22 00:06:14;;;;;;;13.07;8.90;;;;;;;-4.09;100.00;101860.56;845912;23;957;-54
2021/12/22 00:06:35;;;;;;;14.48;8.90;;;;;;;-4.09;100.00;101863.13;847592;23;1313;-53
2021/12/22 00:06:55;;;;;;;15.18;9.00;;;;;;;-4.07;100.00;101859.00;849005;23;957;-55
2021/12/22 00:07:16;;;;;;;13.40;8.77;;;;;;;-4.08;100.00;101864.88;846699;23;4244;-51
2021/12/22 00:07:36;;;;;;;14.02;8.82;;;;;;;-4.17;100.00;101855.75;848053;23;886;-55
2021/12/22 00:07:57;;;;;;;15.07;9.13;;;;;;;-4.20;100.00;101855.53;848981;23;1568;-54
2021/12/22 00:08:18;;;;;;;18.15;9.65;;;;;;;-4.17;100.00;101860.88;847834;23;906;-53
2021/12/22 00:08:38;;;;;;;17.00;9.85;;;;;;;-4.18;100.00;101854.00;848144;23;815;-55
2021/12/22 00:08:59;;;;;;;17.67;10.13;;;;;;;-4.11;100.00;101858.78;845010;23;748;-54
2021/12/22 00:09:19;;;;;;;21.92;11.27;;;;;;;-4.03;100.00;101844.03;844484;23;934;-55
2021/12/22 00:09:40;;;;;;;22.42;11.77;;;;;;;-4.04;100.00;101864.34;844315;23;908;-52
2021/12/22 00:10:01;;;;;;;24.23;10.57;;;;;;;-4.05;100.00;101854.91;844758;23;4287;-54
2021/12/22 00:10:22;;;;;;;21.73;10.63;;;;;;;-4.05;100.00;101847.25;843822;23;848;-54
2021/12/22 00:10:44;;;;;;;21.65;11.38;;;;;;;-4.05;100.00;101854.91;846092;23;835;-55
2021/12/22 00:11:04;;;;;;;20.85;11.20;;;;;;;-4.11;100.00;101853.69;845783;23;949;-51
2021/12/22 00:11:26;;;;;;;19.63;11.00;;;;;;;-4.17;100.00;101858.31;844428;23;946;-53
2021/12/22 00:11:48;;;;;;;17.85;10.25;;;;;;;-4.18;100.00;101859.13;844328;23;1202;-52
2021/12/22 00:12:10;;;;;;;19.65;10.27;;;;;;;-4.23;100.00;101852.78;845990;23;914;-55
2021/12/22 00:12:31;;;;;;;17.85;9.52;;;;;;;-4.26;100.00;101847.44;844346;23;950;-54
2021/12/22 00:12:51;;;;;;;18.65;9.55;;;;;;;-4.27;100.00;101848.22;844037;23;929;-51
2021/12/22 00:13:12;;;;;;;17.73;9.77;;;;;;;-4.15;100.00;101853.34;847077;23;4897;-52
2021/12/22 00:13:33;;;;;;;16.75;9.43;;;;;;;-4.15;100.00;101851.69;849018;23;867;-51
2021/12/22 00:13:56;;;;;;;17.77;9.37;;;;;;;-4.17;100.00;101853.22;849199;23;946;-53
2021/12/22 00:14:19;;;;;;;17.02;8.88;;;;;;;-4.23;100.00;101855.31;850011;23;765;-52
2021/12/22 00:14:39;;;;;;;18.52;9.02;;;;;;;-4.24;100.00;101855.22;848897;23;811;-56
2021/12/22 00:14:59;;;;;;;18.08;9.07;;;;;;;-4.20;100.00;101853.00;847897;23;803;-53
2021/12/22 00:15:20;;;;;;;16.67;8.80;;;;;;;-4.19;100.00;101851.34;845786;23;867;-54
2021/12/22 00:15:40;;;;;;;17.27;8.80;;;;;;;-4.17;100.00;101853.22;849111;23;890;-52
2021/12/22 00:16:01;;;;;;;17.83;8.70;;;;;;;-4.12;100.00;101849.34;846585;23;4326;-55
2021/12/22 00:16:21;;;;;;;16.52;8.35;;;;;;;-4.18;100.00;101850.56;849490;23;715;-54
2021/12/22 00:16:42;;;;;;;15.27;7.97;;;;;;;-4.20;100.00;101858.09;849279;23;867;-51
2021/12/22 00:17:03;;;;;;;14.52;7.63;;;;;;;-4.20;100.00;101852.13;848616;23;910;-52
2021/12/22 00:17:23;;;;;;;16.00;8.52;;;;;;;-4.20;100.00;101863.22;838943;23;1328;-55
2021/12/22 00:17:44;;;;;;;16.37;8.50;;;;;;;-4.17;100.00;101853.22;839624;23;832;-53
2021/12/22 00:18:05;;;;;;;14.50;8.35;;;;;;;-4.13;100.00;101850.09;840346;23;800;-54
2021/12/22 00:18:25;;;;;;;15.43;8.18;;;;;;;-4.11;100.00;101852.81;838898;23;1097;-56
2021/12/22 00:18:46;;;;;;;16.80;7.93;;;;;;;-4.11;100.00;101851.13;840896;23;864;-54
2021/12/22 00:19:06;;;;;;;13.10;7.03;;;;;;;-4.11;100.00;101853.69;840862;23;5133;-55
2021/12/22 00:19:27;;;;;;;12.55;7.43;;;;;;;-4.12;100.00;101851.91;848601;23;922;-56
2021/12/22 00:19:47;;;;;;;13.80;7.88;;;;;;;-4.07;100.00;101853.91;850008;23;914;-55
2021/12/22 00:20:10;;;;;;;14.70;8.20;;;;;;;-4.05;100.00;101849.81;848195;23;760;-55
2021/12/22 00:20:31;;;;;;;14.70;8.20;;;;;;;-4.12;100.00;101854.44;844890;23;771;-53
2021/12/22 00:20:51;;;;;;;13.93;7.85;;;;;;;-4.15;100.00;101846.56;844624;23;906;-53
2021/12/22 00:21:12;;;;;;;13.73;7.37;;;;;;;-4.13;100.00;101849.22;846036;23;768;-54
2021/12/22 00:21:32;;;;;;;14.45;7.38;;;;;;;-4.15;100.00;101851.69;845633;23;919;-53
2021/12/22 00:21:52;;;;;;;14.83;7.70;;;;;;;-4.13;100.00;101846.69;844586;23;1957;-56
2021/12/22 00:22:13;;;;;;;13.93;7.78;;;;;;;-4.11;100.00;101848.56;844518;23;4262;-54
2021/12/22 00:22:34;;;;;;;13.50;7.97;;;;;;;-4.13;100.00;101851.78;845072;23;939;-52
2021/12/22 00:22:54;;;;;;;11.18;7.22;;;;;;;-4.11;100.00;101852.81;845972;23;772;-53
2021/12/22 00:23:15;;;;;;;11.43;7.10;;;;;;;-4.09;100.00;101850.34;844911;23;907;-54
2021/12/22 00:23:36;;;;;;;12.30;7.15;;;;;;;-4.08;100.00;101853.03;844742;23;926;-53
2021/12/22 00:23:56;;;;;;;12.25;7.00;;;;;;;-4.06;100.00;101845.47;845249;23;965;-52
2021/12/22 00:24:17;;;;;;;12.87;7.50;;;;;;;-4.06;100.00;101843.78;844198;23;906;-53
2021/12/22 00:24:37;;;;;;;13.37;7.30;;;;;;;-4.07;100.00;101844.59;844433;23;766;-55
2021/12/22 00:24:58;;;;;;;13.07;7.97;;;;;;;-4.06;100.00;101855.69;844604;23;875;-55
2021/12/22 00:25:20;;;;;;;12.32;7.53;;;;;;;-4.09;100.00;101850.34;844523;23;4352;-52
2021/12/22 00:25:41;;;;;;;12.27;6.85;;;;;;;-4.14;100.00;101850.00;845295;23;936;-55
2021/12/22 00:26:02;;;;;;;11.27;6.50;;;;;;;-4.14;100.00;101856.03;845515;23;757;-53
2021/12/22 00:26:22;;;;;;;11.82;6.75;;;;;;;-4.12;100.00;101849.34;846505;23;911;-54
2021/12/22 00:26:43;;;;;;;12.17;7.13;;;;;;;-4.14;100.00;101847.44;847913;23;942;-55
2021/12/22 00:27:04;;;;;;;12.38;7.10;;;;;;;-4.12;100.00;101851.03;848842;23;859;-52
2021/12/22 00:27:24;;;;;;;12.47;7.23;;;;;;;-4.12;100.00;101849.34;847726;23;788;-55
2021/12/22 00:27:44;;;;;;;11.90;7.10;;;;;;;-4.12;100.00;101857.00;849010;23;906;-52
2021/12/22 00:28:05;;;;;;;11.97;7.23;;;;;;;-4.04;100.00;101849.91;842980;23;4250;-52
2021/12/22 00:28:25;;;;;;;12.63;7.38;;;;;;;-4.03;100.00;101849.16;838834;23;919;-54
2021/12/22 00:28:47;;;;;;;14.30;7.47;;;;;;;-4.08;100.00;101850.47;835704;23;1297;-57
2021/12/22 00:29:08;;;;;;;12.88;7.20;;;;;;;-4.09;100.00;101855.47;837502;23;919;-54
2021/12/22 00:29:29;;;;;;;12.90;7.13;;;;;;;-4.09;100.00;101851.25;841084;23;960;-56
2021/12/22 00:29:51;;;;;;;12.57;7.37;;;;;;;-3.95;100.00;101849.69;841019;23;875;-53
2021/12/22 00:30:14;;;;;;;12.02;7.15;;;;;;;-3.97;100.00;101853.81;846756;23;807;-57
2021/12/22 00:30:37;;;;;;;12.83;7.20;;;;;;;-4.00;100.00;101851.94;845490;23;862;-55
2021/12/22 00:30:57;;;;;;;12.32;7.07;;;;;;;-3.96;100.00;101855.56;849124;23;827;-55
2021/12/22 00:31:20;;;;;;;11.03;6.73;;;;;;;-3.94;100.00;101856.59;847047;23;4461;-53
2021/12/22 00:31:45;;;;;;;12.05;7.00;;;;;;;-3.98;100.00;101849.47;846989;23;1405;-55
2021/12/22 00:32:11;;;;;;;14.65;7.28;;;;;;;-3.95;100.00;101852.25;848728;23;938;-52
2021/12/22 00:32:33;;;;;;;11.73;6.75;;;;;;;-3.99;100.00;101853.72;847979;23;820;-52
2021/12/22 00:33:01;;;;;;;11.25;6.75;;;;;;;-3.99;100.00;101850.25;849014;23;803;-52
2021/12/22 00:33:22;;;;;;;8.98;6.43;;;;;;;-3.99;100.00;101858.81;849755;23;1010;-55
2021/12/22 00:33:51;;;;;;;10.50;6.77;;;;;;;-3.96;100.00;101858.13;844628;23;914;-53
2021/12/22 00:34:16;;;;;;;10.40;6.30;;;;;;;-3.98;100.00;101859.69;842366;23;4256;-56
2021/12/22 00:34:51;;;;;;;10.90;6.57;;;;;;;-3.97;100.00;101851.25;844653;23;839;-53
2021/12/22 00:35:13;;;;;;;11.07;6.65;;;;;;;-3.97;100.00;101864.03;845865;23;863;-56
2021/12/22 00:35:40;;;;;;;10.57;6.53;;;;;;;-3.98;100.00;101852.91;845439;23;935;-52
2021/12/22 00:36:00;;;;;;;10.68;6.70;;;;;;;-3.99;100.00;101857.91;843676;23;764;-52
2021/12/22 00:36:23;;;;;;;11.60;6.67;;;;;;;-4.01;100.00;101852.69;843625;23;865;-55
2021/12/22 00:36:44;;;;;;;11.48;6.80;;;;;;;-4.03;100.00;101859.38;844498;23;912;-56
2021/12/22 00:37:05;;;;;;;10.85;6.57;;;;;;;-4.03;100.00;101859.38;842937;23;4231;-53
2021/12/22 00:37:28;;;;;;;11.73;6.63;;;;;;;-3.98;100.00;101855.47;849637;23;722;-56
2021/12/22 00:37:48;;;;;;;11.00;6.38;;;;;;;-3.95;100.00;101863.34;849753;23;848;-55
2021/12/22 00:38:12;;;;;;;10.27;6.37;;;;;;;-3.94;100.00;101856.59;848650;23;829;-56
2021/12/22 00:38:32;;;;;;;10.27;6.38;;;;;;;-3.92;100.00;101864.34;847606;23;1451;-55
2021/12/22 00:38:53;;;;;;;11.03;6.43;;;;;;;-3.94;100.00;101854.91;848564;23;701;-56
2021/12/22 00:39:13;;;;;;;10.65;6.55;;;;;;;-4.00;100.00;101858.69;848388;23;836;-55
2021/12/22 00:39:33;;;;;;;10.80;6.37;;;;;;;-4.04;100.00;101859.22;842695;23;1280;-55
2021/12/22 00:39:55;;;;;;;10.30;6.60;;;;;;;-4.07;100.00;101865.03;845139;23;856;-51
2021/12/22 00:40:15;;;;;;;10.40;6.47;;;;;;;-4.02;100.00;101862.81;842626;23;4244;-53
2021/12/22 00:40:38;;;;;;;10.93;6.70;;;;;;;-3.82;100.00;101854.94;843319;23;805;-54
2021/12/22 00:40:59;;;;;;;10.80;6.53;;;;;;;-3.83;100.00;101858.25;841911;23;1527;-54
2021/12/22 00:41:19;;;;;;;10.00;6.23;;;;;;;-3.93;100.00;101853.25;842019;23;808;-52
2021/12/22 00:41:39;;;;;;;9.43;6.30;;;;;;;-3.97;100.00;101856.38;845633;23;1040;-51
2021/12/22 00:42:00;;;;;;;10.97;6.20;;;;;;;-3.98;100.00;101852.03;843481;23;1940;-53
2021/12/22 00:42:24;;;;;;;12.05;6.80;;;;;;;-4.00;100.00;101848.47;844991;23;894;-52
2021/12/22 00:42:45;;;;;;;10.13;6.72;;;;;;;-4.00;100.00;101848.47;843075;23;874;-54
2021/12/22 00:43:05;;;;;;;10.27;6.32;;;;;;;-3.97;100.00;101854.69;840459;23;4240;-54
2021/12/22 00:43:25;;;;;;;10.83;6.37;;;;;;;-3.96;100.00;101853.00;844843;23;847;-52
2021/12/22 00:43:46;;;;;;;10.38;6.78;;;;;;;-3.99;100.00;101851.16;844515;23;726;-53
2021/12/22 00:44:06;;;;;;;9.80;6.30;;;;;;;-4.00;100.00;101854.47;845440;23;875;-53
2021/12/22 00:44:27;;;;;;;11.53;6.70;;;;;;;-3.99;100.00;101853.72;846219;23;662;-55
2021/12/22 00:44:51;;;;;;;10.63;6.27;;;;;;;-4.01;100.00;101846.69;844815;23;906;-52
2021/12/22 00:45:11;;;;;;;10.80;6.20;;;;;;;-4.06;100.00;101854.00;845082;23;843;-53
2021/12/22 00:45:33;;;;;;;10.90;6.13;;;;;;;-4.07;100.00;101859.00;845367;23;808;-53
2021/12/22 00:45:56;;;;;;;10.02;6.10;;;;;;;-4.03;100.00;101853.34;844297;23;934;-56
2021/12/22 00:46:16;;;;;;;10.57;6.20;;;;;;;-4.03;100.00;101846.59;841814;23;4259;-52
2021/12/22 00:46:37;;;;;;;10.67;6.37;;;;;;;-3.99;100.00;101850.25;844186;23;748;-54
2021/12/22 00:46:57;;;;;;;10.23;6.43;;;;;;;-4.02;100.00;101850.03;844303;23;915;-53
2021/12/22 00:47:18;;;;;;;10.97;6.80;;;;;;;-4.05;100.00;101842.16;844425;23;1047;-52
2021/12/22 00:47:38;;;;;;;10.05;6.18;;;;;;;-4.09;100.00;101841.03;844424;23;835;-52
2021/12/22 00:47:59;;;;;;;10.57;6.10;;;;;;;-4.11;100.00;101847.69;847038;23;1486;-53
2021/12/22 00:48:19;;;;;;;10.57;6.37;;;;;;;-4.05;100.00;101842.16;849150;23;911;-54
2021/12/22 00:48:40;;;;;;;9.98;6.50;;;;;;;-4.11;100.00;101851.13;849743;23;1154;-53
2021/12/22 00:49:01;;;;;;;11.02;6.38;;;;;;;-4.08;100.00;101841.91;848218;23;4262;-51
2021/12/22 00:49:21;;;;;;;10.13;6.03;;;;;;;-4.03;100.00;101840.56;847867;23;740;-54
2021/12/22 00:49:42;;;;;;;9.80;6.13;;;;;;;-4.06;100.00;101840.38;847597;23;844;-54
2021/12/22 00:50:04;;;;;;;10.30;6.10;;;;;;;-4.09;100.00;101840.16;843928;23;899;-54
2021/12/22 00:50:25;;;;;;;11.05;6.20;;;;;;;-4.14;100.00;101838.13;844578;23;902;-55
2021/12/22 00:50:45;;;;;;;9.52;6.03;;;;;;;-4.14;100.00;101833.03;846087;23;832;-55
2021/12/22 00:51:06;;;;;;;9.77;6.17;;;;;;;-4.17;100.00;101843.00;844001;23;792;-52
2021/12/22 00:51:26;;;;;;;10.02;5.97;;;;;;;-4.20;100.00;101842.78;845350;23;946;-56
2021/12/22 00:51:47;;;;;;;10.13;6.10;;;;;;;-4.24;100.00;101840.78;838279;23;1505;-54
2021/12/22 00:52:07;;;;;;;10.53;6.00;;;;;;;-4.24;100.00;101847.56;839207;23;4618;-52
2021/12/22 00:52:28;;;;;;;9.80;6.00;;;;;;;-4.24;100.00;101843.31;841376;23;836;-53
2021/12/22 00:52:49;;;;;;;9.60;6.00;;;;;;;-4.20;100.00;101837.66;839858;23;760;-53
2021/12/22 00:53:09;;;;;;;10.28;6.24;;;;;;;-4.16;100.00;101842.22;841417;23;808;-52
2021/12/22 00:53:30;;;;;;;10.73;6.50;;;;;;;-4.18;100.00;101833.59;838199;23;2345;-52
2021/12/22 00:53:50;;;;;;;9.83;6.40;;;;;;;-4.22;100.00;101839.25;845538;23;761;-55
2021/12/22 00:54:10;;;;;;;10.10;6.38;;;;;;;-4.23;100.00;101845.13;844256;23;903;-53
2021/12/22 00:54:31;;;;;;;9.20;6.30;;;;;;;-4.16;100.00;101842.22;840413;23;1266;-55
2021/12/22 00:54:52;;;;;;;9.93;6.22;;;;;;;-4.13;100.00;101833.91;840347;23;955;-52
2021/12/22 00:55:17;;;;;;;10.35;6.15;;;;;;;-4.17;100.00;101837.88;839438;23;4411;-54
2021/12/22 00:55:38;;;;;;;11.85;6.60;;;;;;;-4.20;100.00;101836.78;842012;23;839;-54
2021/12/22 00:55:58;;;;;;;11.38;6.30;;;;;;;-4.25;100.00;101838.09;845566;23;934;-55
2021/12/22 00:56:18;;;;;;;8.70;5.90;;;;;;;-4.25;100.00;101838.09;845994;23;898;-53
2021/12/22 00:56:39;;;;;;;8.43;6.00;;;;;;;-4.29;100.00;101843.00;844039;23;764;-55
2021/12/22 00:57:04;;;;;;;8.70;5.90;;;;;;;-4.29;100.00;101837.00;845856;23;792;-51
2021/12/22 00:57:24;;;;;;;8.85;5.93;;;;;;;-4.25;100.00;101836.47;844898;23;1010;-52
2021/12/22 00:57:47;;;;;;;11.40;6.30;;;;;;;-4.20;100.00;101837.66;844799;23;875;-51
2021/12/22 00:58:07;;;;;;;9.93;6.10;;;;;;;-4.19;100.00;101841.13;842360;23;4232;-52
2021/12/22 00:58:27;;;;;;;10.85;5.93;;;;;;;-4.15;100.00;101832.91;845586;23;811;-51
2021/12/22 00:58:48;;;;;;;10.47;6.10;;;;;;;-4.17;100.00;101835.34;845670;23;950;-54
2021/12/22 00:59:10;;;;;;;9.75;6.13;;;;;;;-4.21;100.00;101835.91;846147;23;2419;-55
2021/12/22 00:59:35;;;;;;;10.75;6.30;;;;;;;-4.26;100.00;101834.69;847552;23;1068;-52
2021/12/22 00:59:55;;;;;;;11.23;6.60;;;;;;;-4.27;100.00;101840.56;849604;23;980;-52
2021/12/22 01:00:17;;;;;;;10.80;6.53;;;;;;;-4.23;100.00;101837.44;850083;23;835;-54
2021/12/22 01:00:38;;;;;;;10.85;6.53;;;;;;;-4.10;100.00;101834.13;849766;23;923;-52
2021/12/22 01:00:59;;;;;;;9.87;6.57;;;;;;;-4.07;100.00;101838.56;847422;23;911;-55
2021/12/22 01:01:19;;;;;;;10.68;6.35;;;;;;;-4.06;100.00;101833.56;842501;23;4328;-52
2021/12/22 01:01:40;;;;;;;10.10;6.10;;;;;;;-4.14;100.00;101835.59;844547;23;836;-56
2021/12/22 01:02:03;;;;;;;9.68;6.20;;;;;;;-4.18;100.00;101842.88;844974;23;1889;-55
2021/12/22 01:02:23;;;;;;;9.60;6.10;;;;;;;-4.21;100.00;101841.03;845207;23;842;-55
2021/12/22 01:02:44;;;;;;;10.50;6.37;;;;;;;-4.24;100.00;101832.22;845086;23;1055;-54
2021/12/22 01:03:05;;;;;;;12.15;6.63;;;;;;;-4.22;100.00;101839.25;845985;23;760;-52
2021/12/22 01:03:25;;;;;;;11.48;6.53;;;;;;;-4.17;100.00;101843.00;842944;23;765;-53
2021/12/22 01:03:46;;;;;;;9.83;6.07;;;;;;;-4.18;100.00;101840.34;843367;23;868;-54
2021/12/22 01:04:06;;;;;;;9.67;6.27;;;;;;;-4.23;100.00;101842.56;843388;23;4295;-54
2021/12/22 01:04:27;;;;;;;10.27;6.50;;;;;;;-4.22;100.00;101844.34;845351;23;903;-54
2021/12/22 01:04:47;;;;;;;9.97;6.30;;;;;;;-4.14;100.00;101843.25;845291;23;915;-55
2021/12/22 01:05:12;;;;;;;9.82;6.40;;;;;;;-4.14;100.00;101843.25;844856;23;930;-53
2021/12/22 01:05:33;;;;;;;10.50;5.82;;;;;;;-4.19;100.00;101847.13;845117;23;863;-55
2021/12/22 01:05:53;;;;;;;10.10;6.20;;;;;;;-4.20;100.00;101849.56;844219;23;761;-52
2021/12/22 01:06:14;;;;;;;9.88;6.25;;;;;;;-4.20;100.00;101845.34;848334;23;937;-55
2021/12/22 01:06:35;;;;;;;10.93;6.32;;;;;;;-4.15;100.00;101841.47;848126;23;863;-53
2021/12/22 01:06:56;;;;;;;10.90;6.53;;;;;;;-4.17;100.00;101840.44;848568;23;926;-51
2021/12/22 01:07:16;;;;;;;10.68;6.25;;;;;;;-4.18;100.00;101843.78;842825;23;4234;-54
2021/12/22 01:07:37;;;;;;;12.10;6.93;;;;;;;-4.16;100.00;101844.78;844033;23;910;-58
2021/12/22 01:07:58;;;;;;;11.23;6.07;;;;;;;-4.16;100.00;101849.88;844344;23;942;-56
2021/12/22 01:08:19;;;;;;;10.20;6.25;;;;;;;-4.18;100.00;101851.47;845518;23;799;-55
2021/12/22 01:08:40;;;;;;;10.35;6.40;;;;;;;-4.20;100.00;101842.78;844811;23;871;-55
2021/12/22 01:09:00;;;;;;;11.60;6.50;;;;;;;-4.18;100.00;101846.34;845454;23;891;-55
2021/12/22 01:09:21;;;;;;;10.45;6.40;;;;;;;-4.17;100.00;101837.88;843565;23;783;-55
2021/12/22 01:09:42;;;;;;;9.17;5.80;;;;;;;-4.16;100.00;101842.22;845313;23;1049;-54
2021/12/22 01:10:03;;;;;;;10.13;5.85;;;;;;;-4.14;100.00;101845.81;847570;23;4238;-52
2021/12/22 01:10:26;;;;;;;9.20;5.70;;;;;;;-4.18;100.00;101846.34;848180;23;903;-52
2021/12/22 01:10:47;;;;;;;8.70;5.70;;;;;;;-4.20;100.00;101841.91;849031;23;949;-58
2021/12/22 01:11:08;;;;;;;9.98;6.43;;;;;;;-4.21;100.00;101845.22;848687;23;875;-52
2021/12/22 01:11:28;;;;;;;8.95;5.90;;;;;;;-4.18;100.00;101837.78;849424;23;883;-56
2021/12/22 01:11:50;;;;;;;9.27;5.90;;;;;;;-4.18;100.00;101840.34;848713;23;1236;-55
2021/12/22 01:12:11;;;;;;;10.30;5.65;;;;;;;-4.19;100.00;101836.91;848031;23;862;-53
2021/12/22 01:12:32;;;;;;;10.07;5.80;;;;;;;-4.20;100.00;101842.78;846431;23;945;-55
2021/12/22 01:12:55;;;;;;;9.77;5.77;;;;;;;-4.20;100.00;101839.34;847106;23;1354;-54
2021/12/22 01:13:16;;;;;;;9.10;5.60;;;;;;;-4.19;100.00;101844.56;846852;23;4302;-53
2021/12/22 01:13:36;;;;;;;10.13;5.93;;;;;;;-4.19;100.00;101844.56;848466;23;1270;-54
2021/12/22 01:13:57;;;;;;;9.53;6.07;;;;;;;-4.23;100.00;101840.00;850034;23;772;-53
2021/12/22 01:14:17;;;;;;;10.88;6.10;;;;;;;-4.22;100.00;101838.31;848767;23;752;-56
2021/12/22 01:14:39;;;;;;;10.37;5.70;;;;;;;-4.16;100.00;101829.47;849356;23;839;-54
2021/12/22 01:14:59;;;;;;;8.55;5.55;;;;;;;-4.14;100.00;101834.69;844841;23;927;-56
2021/12/22 01:15:21;;;;;;;8.60;5.60;;;;;;;-4.16;100.00;101838.78;845274;23;918;-52
2021/12/22 01:15:41;;;;;;;9.77;5.97;;;;;;;-4.17;100.00;101843.00;843930;23;767;-52
2021/12/22 01:16:04;;;;;;;8.47;5.53;;;;;;;-4.16;100.00;101832.00;844578;23;4533;-53
2021/12/22 01:16:24;;;;;;;9.00;5.43;;;;;;;-4.17;100.00;101842.13;844763;23;975;-53
2021/12/22 01:16:48;;;;;;;9.10;5.72;;;;;;;-4.18;100.00;101838.69;846737;23;943;-54
2021/12/22 01:17:12;;;;;;;8.35;5.47;;;;;;;-4.12;100.00;101836.56;848880;23;954;-52
2021/12/22 01:17:39;;;;;;;9.38;5.57;;;;;;;-4.09;100.00;101837.59;848928;23;954;-54
2021/12/22 01:18:04;;;;;;;8.80;5.57;;;;;;;-4.11;100.00;101837.47;848637;23;1102;-53
2021/12/22 01:18:30;;;;;;;8.13;5.15;;;;;;;-4.11;100.00;101838.34;848245;23;930;-56
2021/12/22 01:18:51;;;;;;;9.75;5.40;;;;;;;-4.12;100.00;101828.91;846449;23;931;-54
2021/12/22 01:19:16;;;;;;;8.70;5.65;;;;;;;-4.13;100.00;101832.22;846787;23;5005;-53
2021/12/22 01:19:48;;;;;;;8.50;5.47;;;;;;;-4.16;100.00;101832.00;848878;23;828;-51
2021/12/22 01:20:22;;;;;;;9.50;5.50;;;;;;;-4.16;100.00;101839.69;847892;23;843;-53
2021/12/22 01:21:25;;;;;;;8.18;5.43;;;;;;;-4.11;100.00;101829.81;843668;23;808;-56
2021/12/22 01:21:56;;;;;;;8.77;5.25;;;;;;;-4.12;100.00;101830.59;845263;23;839;-55
2021/12/22 01:22:27;;;;;;;9.05;5.43;;;;;;;-4.11;100.00;101833.25;842563;23;4351;-53
2021/12/22 01:22:48;;;;;;;9.85;5.40;;;;;;;-4.14;100.00;101827.94;845020;23;903;-52
2021/12/22 01:23:10;;;;;;;9.65;5.60;;;;;;;-4.13;100.00;101826.25;848392;23;771;-55
2021/12/22 01:23:35;;;;;;;7.82;5.30;;;;;;;-4.12;100.00;101836.56;849495;23;950;-54
2021/12/22 01:24:12;;;;;;;8.10;5.35;;;;;;;-4.11;100.00;101833.25;849980;23;903;-55
2021/12/22 01:24:34;;;;;;;8.85;5.63;;;;;;;-4.14;100.00;101829.56;848863;23;942;-51
2021/12/22 01:25:03;;;;;;;8.60;5.35;;;;;;;-4.15;100.00;101831.25;847155;23;765;-52
2021/12/22 01:25:24;;;;;;;8.23;5.63;;;;;;;-4.20;100.00;101835.13;843395;23;4768;-53
2021/12/22 01:25:47;;;;;;;8.65;5.68;;;;;;;-4.20;100.00;101837.66;845944;23;883;-52
2021/12/22 01:26:08;;;;;;;8.70;5.40;;;;;;;-4.19;100.00;101841.13;844453;23;764;-53
2021/12/22 01:26:33;;;;;;;9.13;5.47;;;;;;;-4.18;100.00;101841.25;844979;23;871;-53
2021/12/22 01:27:03;;;;;;;8.57;5.40;;;;;;;-4.18;100.00;101850.56;844706;23;815;-55
2021/12/22 01:27:26;;;;;;;8.77;5.53;;;;;;;-4.21;100.00;101851.25;843415;23;955;-54
2021/12/22 01:27:47;;;;;;;8.93;5.38;;;;;;;-4.20;100.00;101842.78;844998;23;835;-53
2021/12/22 01:28:08;;;;;;;8.70;5.30;;;;;;;-4.05;100.00;101844.69;843501;23;4330;-51
2021/12/22 01:28:28;;;;;;;9.40;5.63;;;;;;;-4.06;100.00;101845.47;844404;23;844;-54
2021/12/22 01:28:49;;;;;;;8.70;5.72;;;;;;;-4.06;100.00;101840.38;844685;23;721;-51
2021/12/22 01:29:09;;;;;;;9.43;5.60;;;;;;;-4.00;100.00;101844.25;845430;23;694;-51
2021/12/22 01:29:35;;;;;;;9.57;5.80;;;;;;;-4.02;100.00;101844.91;848607;23;799;-53
2021/12/22 01:29:55;;;;;;;9.63;5.60;;;;;;;-4.03;100.00;101845.69;849276;23;911;-55
2021/12/22 01:30:20;;;;;;;8.10;5.17;;;;;;;-4.06;100.00;101846.34;849135;23;769;-52
2021/12/22 01:30:44;;;;;;;8.13;5.10;;;;;;;-4.07;100.00;101848.78;844557;23;800;-54
2021/12/22 01:31:05;;;;;;;10.52;6.13;;;;;;;-4.13;100.00;101847.56;843251;23;4429;-54
2021/12/22 01:31:25;;;;;;;8.57;5.10;;;;;;;-4.14;100.00;101853.47;843951;23;836;-52
2021/12/22 01:31:46;;;;;;;8.75;4.90;;;;;;;-4.13;100.00;101845.00;848406;23;907;-52
2021/12/22 01:32:09;;;;;;;8.87;5.20;;;;;;;-4.06;100.00;101848.03;847679;23;776;-52
2021/12/22 01:32:29;;;;;;;8.57;5.15;;;;;;;-4.06;100.00;101848.03;848028;23;966;-57
2021/12/22 01:32:53;;;;;;;9.37;5.30;;;;;;;-4.01;100.00;101845.03;848998;23;886;-54
2021/12/22 01:33:15;;;;;;;8.48;5.38;;;;;;;-3.98;100.00;101849.47;850197;23;795;-51
2021/12/22 01:33:35;;;;;;;8.52;5.57;;;;;;;-4.00;100.00;101851.00;846152;23;948;-51
2021/12/22 01:33:56;;;;;;;8.87;5.67;;;;;;;-4.02;100.00;101850.03;845411;23;860;-55
2021/12/22 01:34:16;;;;;;;7.55;5.07;;;;;;;-4.04;100.00;101849.00;848233;23;4315;-54
2021/12/22 01:34:36;;;;;;;8.20;5.10;;;;;;;-4.06;100.00;101858.25;848354;23;810;-53
2021/12/22 01:34:57;;;;;;;7.95;5.47;;;;;;;-4.11;100.00;101852.81;848323;23;895;-54
2021/12/22 01:35:20;;;;;;;8.43;5.67;;;;;;;-4.11;100.00;101853.69;849038;23;717;-54
2021/12/22 01:35:41;;;;;;;9.20;5.55;;;;;;;-4.04;100.00;101864.34;848513;23;613;-55
2021/12/22 01:36:02;;;;;;;8.00;5.38;;;;;;;-4.01;100.00;101864.59;849089;23;1002;-55
2021/12/22 01:36:22;;;;;;;8.90;5.18;;;;;;;-4.03;100.00;101856.81;849197;23;887;-53
2021/12/22 01:36:43;;;;;;;9.73;5.10;;;;;;;-4.02;100.00;101857.69;848364;23;741;-53
2021/12/22 01:37:03;;;;;;;9.88;5.35;;;;;;;-4.04;100.00;101860.13;848059;23;4269;-52
2021/12/22 01:37:24;;;;;;;9.43;5.50;;;;;;;-4.08;100.00;101858.13;849176;23;764;-56
2021/12/22 01:37:45;;;;;;;8.90;5.10;;;;;;;-4.08;100.00;101862.31;848587;23;907;-52
2021/12/22 01:38:06;;;;;;;8.32;5.43;;;;;;;-4.11;100.00;101868.13;847030;23;926;-52
2021/12/22 01:38:26;;;;;;;9.50;5.63;;;;;;;-4.13;100.00;101860.31;848673;23;840;-52
2021/12/22 01:38:48;;;;;;;9.60;5.40;;;;;;;-4.13;100.00;101860.31;848713;23;918;-56
2021/12/22 01:39:08;;;;;;;10.23;5.53;;;;;;;-4.09;100.00;101863.13;847895;23;851;-53
2021/12/22 01:39:28;;;;;;;9.67;5.47;;;;;;;-4.12;100.00;101862.13;848999;23;1064;-51
2021/12/22 01:39:49;;;;;;;9.63;5.47;;;;;;;-4.06;100.00;101866.78;850006;23;918;-52
2021/12/22 01:40:11;;;;;;;9.15;5.47;;;;;;;-4.07;100.00;101861.56;848196;23;4547;-55
2021/12/22 01:40:34;;;;;;;8.15;5.13;;;;;;;-4.10;100.00;101859.66;849802;23;795;-54
2021/12/22 01:40:54;;;;;;;8.57;5.00;;;;;;;-4.14;100.00;101861.13;848498;23;980;-57
2021/12/22 01:41:15;;;;;;;8.37;5.10;;;;;;;-4.14;100.00;101867.88;842624;23;839;-53
2021/12/22 01:41:35;;;;;;;7.75;5.13;;;;;;;-4.17;100.00;101863.44;844911;23;843;-54
2021/12/22 01:41:56;;;;;;;8.90;5.27;;;;;;;-4.17;100.00;101860.88;844472;23;1932;-56
2021/12/22 01:42:17;;;;;;;8.97;5.13;;;;;;;-4.17;100.00;101865.97;845897;23;887;-55
2021/12/22 01:42:39;;;;;;;8.90;5.25;;;;;;;-4.18;100.00;101866.78;843923;23;1072;-53